createdAt,value
2019-04-29T00:01:26.241Z,15.87
2019-04-29T00:04:12.593Z,13.70
2019-04-29T00:06:58.615Z,15.30
2019-04-29T00:09:44.587Z,14.83
2019-04-29T00:12:31.335Z,21.23
2019-04-29T00:15:46.115Z,14.20
2019-04-29T00:19:09.925Z,12.97
2019-04-29T00:21:56.605Z,12.33
2019-04-29T00:24:42.900Z,11.70
2019-04-29T00:27:29.359Z,10.97
2019-04-29T00:30:20.715Z,14.40
2019-04-29T00:33:06.972Z,14.40
2019-04-29T00:35:53.085Z,14.97
2019-04-29T00:38:58.654Z,14.17
2019-04-29T00:42:07.231Z,14.83
2019-04-29T00:44:53.608Z,14.47
2019-04-29T00:47:39.885Z,12.47
2019-04-29T00:50:26.115Z,16.20
2019-04-29T00:53:12.280Z,16.87
2019-04-29T00:56:01.175Z,16.27
2019-04-29T00:58:47.171Z,16.53
2019-04-29T01:01:33.170Z,13.77
2019-04-29T01:04:19.395Z,12.90
2019-04-29T01:07:06.035Z,11.83
2019-04-29T01:09:52.175Z,14.47
2019-04-29T01:12:38.273Z,16.10
2019-04-29T01:15:24.435Z,11.57
2019-04-29T01:18:10.485Z,13.07
2019-04-29T01:20:56.630Z,12.87
2019-04-29T01:23:42.901Z,14.47
2019-04-29T01:26:47.100Z,13.70
2019-04-29T01:29:33.765Z,12.27
2019-04-29T01:32:19.849Z,14.77
2019-04-29T01:35:05.885Z,15.80
2019-04-29T01:37:52.110Z,16.73
2019-04-29T01:40:57.810Z,16.60
2019-04-29T01:44:03.340Z,17.00
2019-04-29T01:46:49.530Z,16.43
2019-04-29T01:49:35.664Z,15.40
2019-04-29T01:52:21.810Z,16.30
2019-04-29T01:55:08.034Z,16.87
2019-04-29T01:57:54.120Z,19.50
2019-04-29T02:00:40.129Z,16.17
2019-04-29T02:03:26.265Z,14.80
2019-04-29T02:06:12.594Z,16.77
2019-04-29T02:08:58.784Z,11.73
2019-04-29T02:11:44.651Z,16.37
2019-04-29T02:14:30.984Z,14.13
2019-04-29T02:17:17.086Z,13.83
2019-04-29T02:20:04.074Z,13.13
2019-04-29T02:23:10.120Z,11.37
2019-04-29T02:25:56.360Z,11.50
2019-04-29T02:28:42.355Z,13.00
2019-04-29T02:31:37.588Z,16.80
2019-04-29T02:34:23.912Z,17.27
2019-04-29T02:37:12.183Z,16.60
2019-04-29T02:40:04.965Z,12.70
2019-04-29T02:43:00.440Z,13.30
2019-04-29T02:45:46.995Z,13.40
2019-04-29T02:48:34.669Z,15.20
2019-04-29T02:51:39.548Z,15.47
2019-04-29T02:54:27.635Z,13.43
2019-04-29T02:57:36.067Z,15.43
2019-04-29T03:00:44.620Z,17.10
2019-04-29T03:03:48.835Z,17.13
2019-04-29T03:06:35.387Z,17.13
2019-04-29T03:09:21.337Z,13.50
2019-04-29T03:12:07.492Z,12.63
2019-04-29T03:14:53.636Z,14.90
2019-04-29T03:17:39.730Z,14.83
2019-04-29T03:20:50.355Z,14.00
2019-04-29T03:23:36.600Z,14.80
2019-04-29T03:26:22.759Z,17.23
2019-04-29T03:29:21.430Z,15.47
2019-04-29T03:32:07.859Z,16.53
2019-04-29T03:34:54.045Z,16.83
2019-04-29T03:37:40.167Z,16.40
2019-04-29T03:40:26.612Z,13.83
2019-04-29T03:43:12.660Z,14.47
2019-04-29T03:45:58.940Z,23.27
2019-04-29T03:48:44.992Z,19.20
2019-04-29T03:51:30.983Z,17.33
2019-04-29T03:54:17.095Z,11.87
2019-04-29T03:57:03.090Z,14.17
2019-04-29T03:59:49.139Z,12.87
2019-04-29T04:02:45.016Z,13.70
2019-04-29T04:05:56.908Z,13.20
2019-04-29T04:09:04.293Z,13.20
2019-04-29T04:11:33.907Z,15.23
2019-04-29T04:14:20.035Z,15.00
2019-04-29T04:17:20.251Z,14.67
2019-04-29T04:20:04.740Z,14.17
2019-04-29T04:22:50.922Z,18.57
2019-04-29T04:25:37.125Z,15.57
2019-04-29T04:28:23.170Z,15.37
2019-04-29T04:31:09.172Z,15.13
2019-04-29T04:33:55.366Z,14.37
2019-04-29T04:36:41.860Z,14.43
2019-04-29T04:39:29.792Z,13.53
2019-04-29T04:42:16.185Z,14.30
2019-04-29T04:45:02.707Z,15.43
2019-04-29T04:47:48.601Z,16.17
2019-04-29T04:50:34.775Z,19.17
2019-04-29T04:53:20.950Z,22.60
2019-04-29T04:56:06.890Z,17.57
2019-04-29T04:58:53.104Z,18.80
2019-04-29T05:01:39.385Z,19.43
2019-04-29T05:04:25.345Z,18.10
2019-04-29T05:07:11.686Z,17.87
2019-04-29T05:09:57.784Z,15.60
2019-04-29T05:12:44.019Z,12.60
2019-04-29T05:15:30.300Z,19.03
2019-04-29T05:18:16.301Z,15.77
2019-04-29T05:21:02.354Z,15.17
2019-04-29T05:23:48.581Z,14.33
2019-04-29T05:26:34.676Z,14.97
2019-04-29T05:29:20.873Z,17.60
2019-04-29T05:32:06.976Z,15.30
2019-04-29T05:34:55.231Z,17.27
2019-04-29T05:37:51.514Z,13.67
2019-04-29T05:40:46.187Z,14.57
2019-04-29T05:43:47.406Z,14.07
2019-04-29T05:46:48.220Z,16.20
2019-04-29T05:49:41.618Z,15.67
2019-04-29T05:52:49.807Z,17.20
2019-04-29T05:55:36.343Z,14.70
2019-04-29T05:58:22.305Z,15.27
2019-04-29T06:01:13.830Z,14.47
2019-04-29T06:03:59.621Z,12.33
2019-04-29T06:06:45.825Z,15.57
2019-04-29T06:09:31.730Z,14.77
2019-04-29T06:12:17.873Z,14.80
2019-04-29T06:15:04.238Z,17.37
2019-04-29T06:17:50.482Z,20.50
2019-04-29T06:20:36.742Z,20.57
2019-04-29T06:23:24.188Z,22.47
2019-04-29T06:26:10.688Z,22.80
2019-04-29T06:28:56.867Z,23.50
2019-04-29T06:31:42.987Z,25.50
2019-04-29T06:34:29.267Z,19.37
2019-04-29T06:37:15.627Z,22.83
2019-04-29T06:40:01.546Z,24.40
2019-04-29T06:42:49.387Z,24.27
2019-04-29T06:45:36.190Z,22.10
2019-04-29T06:48:22.331Z,21.20
2019-04-29T06:51:08.390Z,21.30
2019-04-29T06:53:54.867Z,18.87
2019-04-29T06:56:40.867Z,19.83
2019-04-29T06:59:26.905Z,20.13
2019-04-29T07:02:14.400Z,19.67
2019-04-29T07:05:01.282Z,19.63
2019-04-29T07:07:47.525Z,23.43
2019-04-29T07:10:34.166Z,20.30
2019-04-29T07:13:22.778Z,17.30
2019-04-29T07:16:08.409Z,16.57
2019-04-29T07:18:54.775Z,16.83
2019-04-29T07:21:41.965Z,17.50
2019-04-29T07:24:29.428Z,18.53
2019-04-29T07:27:16.502Z,15.77
2019-04-29T07:30:06.512Z,16.27
2019-04-29T07:32:50.814Z,16.60
2019-04-29T07:35:38.253Z,16.57
2019-04-29T07:38:24.587Z,16.63
2019-04-29T07:41:14.270Z,16.07
2019-04-29T07:43:59.167Z,19.80
2019-04-29T07:46:56.702Z,21.43
2019-04-29T07:49:38.674Z,18.07
2019-04-29T07:52:24.867Z,18.63
2019-04-29T07:55:12.509Z,15.13
2019-04-29T07:57:58.886Z,15.67
2019-04-29T08:00:48.837Z,16.20
2019-04-29T08:03:34.127Z,16.73
2019-04-29T08:06:20.408Z,15.67
2019-04-29T08:09:09.724Z,14.00
2019-04-29T08:11:56.767Z,17.20
2019-04-29T08:14:44.166Z,14.43
2019-04-29T08:17:30.679Z,12.83
2019-04-29T08:20:18.327Z,12.83
2019-04-29T08:23:07.167Z,11.73
2019-04-29T08:26:02.561Z,12.77
2019-04-29T08:28:52.874Z,14.07
2019-04-29T08:34:46.542Z,12.57
2019-04-29T08:37:33.552Z,14.60
2019-04-29T08:40:20.207Z,12.10
2019-04-29T08:43:22.230Z,16.23
2019-04-29T08:46:12.132Z,12.20
2019-04-29T08:49:01.160Z,13.00
2019-04-29T08:51:47.906Z,11.30
2019-04-29T08:54:37.122Z,13.10
2019-04-29T08:57:26.885Z,11.33
2019-04-29T09:00:15.507Z,13.60
2019-04-29T09:03:01.747Z,12.30
2019-04-29T09:06:04.390Z,12.73
2019-04-29T09:08:36.330Z,12.13
2019-04-29T09:11:22.707Z,10.77
2019-04-29T09:14:08.787Z,11.60
2019-04-29T09:16:55.027Z,12.07
2019-04-29T09:19:41.187Z,15.17
2019-04-29T09:22:29.427Z,12.27
2019-04-29T09:25:35.567Z,11.30
2019-04-29T09:28:27.169Z,10.63
2019-04-29T09:31:10.407Z,10.43
2019-04-29T09:34:06.520Z,9.67
2019-04-29T09:36:48.403Z,9.97
2019-04-29T09:39:43.370Z,11.33
2019-04-29T09:42:41.245Z,8.57
2019-04-29T09:45:47.167Z,9.07
2019-04-29T09:48:33.602Z,8.00
2019-04-29T09:51:22.596Z,11.07
2019-04-29T09:54:09.780Z,6.87
2019-04-29T09:56:56.747Z,7.93
2019-04-29T09:59:47.887Z,9.23
2019-04-29T10:03:02.484Z,6.93
2019-04-29T10:05:56.107Z,8.07
2019-04-29T10:08:42.665Z,6.13
2019-04-29T10:11:30.127Z,7.07
2019-04-29T10:14:16.446Z,6.23
2019-04-29T10:17:32.587Z,7.07
2019-04-29T10:20:41.089Z,5.33
2019-04-29T10:23:27.467Z,5.10
2019-04-29T10:26:16.529Z,5.40
2019-04-29T10:29:07.647Z,4.90
2019-04-29T10:32:02.555Z,5.70
2019-04-29T10:34:49.886Z,4.70
2019-04-29T10:37:36.654Z,17.93
2019-04-29T10:40:50.127Z,4.50
2019-04-29T10:43:55.654Z,4.23
2019-04-29T10:47:07.291Z,4.57
2019-04-29T10:49:58.100Z,4.83
2019-04-29T10:52:44.285Z,5.70
2019-04-29T10:55:31.720Z,5.27
2019-04-29T10:58:22.514Z,4.10
2019-04-29T11:02:01.356Z,5.37
2019-04-29T11:04:49.526Z,4.80
2019-04-29T11:07:38.327Z,4.33
2019-04-29T11:10:29.171Z,4.50
2019-04-29T11:13:18.887Z,4.33
2019-04-29T11:16:05.487Z,4.80
2019-04-29T11:18:55.162Z,4.73
2019-04-29T11:21:40.307Z,7.27
2019-04-29T11:24:46.532Z,4.67
2019-04-29T11:27:38.607Z,6.03
2019-04-29T11:30:26.248Z,5.53
2019-04-29T11:33:18.747Z,4.40
2019-04-29T11:36:09.927Z,5.40
2019-04-29T11:38:56.227Z,5.67
2019-04-29T11:41:44.729Z,8.37
2019-04-29T11:44:31.917Z,6.97
2019-04-29T11:47:20.893Z,6.10
2019-04-29T11:50:22.307Z,5.70
2019-04-29T11:53:17.247Z,7.57
2019-04-29T11:56:04.887Z,6.17
2019-04-29T11:58:58.933Z,8.30
2019-04-29T12:02:03.504Z,8.30
2019-04-29T12:04:54.088Z,7.20
2019-04-29T12:07:40.467Z,8.90
2019-04-29T12:10:26.687Z,7.63
2019-04-29T12:13:28.404Z,7.67
2019-04-29T12:16:30.807Z,8.67
2019-04-29T12:19:42.490Z,7.83
2019-04-29T12:23:11.083Z,8.40
2019-04-29T12:26:13.786Z,8.63
2019-04-29T12:29:59.225Z,9.73
2019-04-29T12:36:24.566Z,12.43
2019-04-29T12:43:32.236Z,14.63
2019-04-29T12:47:26.146Z,14.57
2019-04-29T12:55:19.217Z,12.67
2019-04-29T13:02:46.948Z,12.97
2019-04-29T13:06:02.947Z,13.70
2019-04-29T13:08:55.332Z,14.70
2019-04-29T13:12:05.065Z,15.80
2019-04-29T13:15:54.569Z,15.70
2019-04-29T13:23:33.283Z,20.33
2019-04-29T13:26:53.807Z,14.40
2019-04-29T13:34:24.053Z,17.07
2019-04-29T13:37:08.064Z,18.47
2019-04-29T13:44:41.693Z,19.47
2019-04-29T13:47:35.586Z,19.03
2019-04-29T13:50:39.393Z,20.50
2019-04-29T13:53:20.567Z,21.40
2019-04-29T13:56:28.524Z,20.30
2019-04-29T13:59:09.736Z,21.67
2019-04-29T14:02:07.465Z,17.57
2019-04-29T14:05:00.304Z,21.00
2019-04-29T14:07:52.692Z,19.27
2019-04-29T14:10:39.187Z,19.13
2019-04-29T14:13:28.223Z,24.03
2019-04-29T14:16:19.208Z,20.23
2019-04-29T14:19:13.428Z,21.20
2019-04-29T14:22:03.246Z,20.73
2019-04-29T14:24:50.361Z,26.13
2019-04-29T14:27:38.036Z,23.10
2019-04-29T14:30:38.381Z,19.83
2019-04-29T14:33:27.103Z,21.33
2019-04-29T14:36:15.021Z,21.73
2019-04-29T14:39:07.659Z,23.20
2019-04-29T14:41:58.387Z,23.50
2019-04-29T14:44:57.892Z,25.30
2019-04-29T14:50:31.288Z,22.43
2019-04-29T14:53:19.497Z,24.00
2019-04-29T14:56:06.696Z,25.87
2019-04-29T14:59:06.985Z,24.23
2019-04-29T15:10:36.527Z,24.40
2019-04-29T15:29:20.387Z,25.43
2019-04-29T15:51:23.566Z,24.00
2019-04-29T15:58:29.575Z,25.73
2019-04-29T16:02:04.661Z,23.70
2019-04-29T16:14:00.134Z,22.23
2019-04-29T16:33:20.067Z,25.87
2019-04-29T16:36:29.106Z,23.03
2019-04-29T16:40:15.127Z,25.07
2019-04-29T16:52:03.286Z,23.07
2019-04-29T16:55:35.807Z,26.67
2019-04-29T16:58:21.947Z,26.47
2019-04-29T17:01:10.108Z,23.73
2019-04-29T17:12:58.482Z,21.87
2019-04-29T17:15:52.310Z,18.10
2019-04-29T17:18:33.842Z,17.43
2019-04-29T17:21:23.352Z,17.20
2019-04-29T17:24:12.580Z,19.67
2019-04-29T17:27:11.115Z,23.23
2019-04-29T17:30:20.625Z,15.30
2019-04-29T17:33:26.357Z,16.13
2019-04-29T17:35:18.873Z,22.33
2019-04-29T17:36:06.042Z,16.20
2019-04-29T17:38:52.620Z,16.93
2019-04-29T17:41:43.813Z,16.60
2019-04-29T17:44:48.786Z,16.73
2019-04-29T17:47:56.405Z,16.70
2019-04-29T17:50:48.027Z,15.90
2019-04-29T17:53:43.590Z,15.50
2019-04-29T17:56:51.241Z,15.97
2019-04-29T18:04:57.251Z,16.47
2019-04-29T18:09:31.879Z,14.10
2019-04-29T18:13:26.441Z,16.03
2019-04-29T18:41:54.798Z,14.63
2019-04-29T18:54:21.923Z,16.37
2019-04-29T20:37:00.888Z,26.13
2019-04-29T21:13:58.450Z,44.03
2019-04-29T22:26:29.306Z,44.67
2019-04-29T22:29:15.580Z,46.23
2019-04-29T22:32:02.299Z,48.00
2019-04-29T22:34:49.627Z,47.37
2019-04-29T22:45:47.123Z,47.60
2019-04-29T22:48:40.567Z,47.83
2019-04-29T22:51:31.887Z,55.90
2019-04-29T22:54:57.949Z,50.07
2019-04-29T22:57:39.663Z,49.50
2019-04-29T23:00:32.667Z,54.17
2019-04-29T23:03:21.290Z,55.63
2019-04-29T23:06:12.543Z,55.73
2019-04-29T23:09:00.785Z,54.30
2019-04-29T23:11:49.120Z,52.20
2019-04-29T23:14:40.197Z,50.60
2019-04-29T23:17:26.373Z,50.57
2019-04-29T23:20:45.425Z,51.23
2019-04-29T23:23:39.075Z,52.97
2019-04-29T23:26:26.435Z,52.97
2019-04-29T23:29:15.546Z,52.60
2019-04-29T23:32:07.986Z,50.77
2019-04-29T23:34:54.989Z,52.97
2019-04-29T23:37:41.705Z,58.77
2019-04-29T23:40:27.905Z,53.43
2019-04-29T23:43:15.769Z,53.47
2019-04-29T23:46:02.335Z,53.47
2019-04-29T23:48:48.570Z,55.60
2019-04-29T23:51:37.732Z,50.00
2019-04-29T23:54:24.858Z,58.43
2019-04-29T23:57:30.653Z,57.50
